Main page
METAR-TAF:

METAR-TAF

Airports :

Beja, Portugal

Beja Airbase

latitude: 38-04-40N, longitude: 007-55-57W, elevation: 193 m

Current weather observation

The report was made 28 minutes ago, at 23:00 UTC
Wind 7 kt from the Northwest
Temperature 19°C
Humidity 73%
Pressure 1016 hPa
Visibility 10 km or more
no clouds below 1500 m and no cumulonimbus

METAR: LPBJ 222300Z 31007KT CAVOK 19/14 Q1016

Time: 00:28 (23:28 UTC)

Forecast

The report was made 6 hours and 24 minutes ago, at 17:04 UTC
Forecast valid from 22 at 18 UTC to 23 at 18 UTC
Wind 5 kt from the North
Visibility 10 km or more
no clouds below 1500 m and no cumulonimbus
Probability 40% :
Temporary
from 22 at 18 UTC to 22 at 21 UTC
Wind 12 kt from the North with gusts up to 22 kt
Becoming
from 23 at 06 UTC to 23 at 08 UTC
Wind 5 kt from the East/Southeast

TAF: LPBJ 221704Z 2218/2318 36005KT CAVOK PROB40 TEMPO 2218/2221 01012G22KT BECMG 2306/2308 11005KT

Weather observations and forecasts of more than 4000 airports (METAR and TAF reports).

The available stations are represented by yellow and red dots on the map.

Hover mouse over dot to see the name of the station.

Then click to see weather observations and forecasts.

To change the map : click on the green buttons with a black cross to zoom in, on the green button with a dash to zoom out, or on the green arrows for adjacent maps.


METAR-TAF: